ADDS TAF Board (Experimental) INFO Settings

IDs: Format: Expanded Condensed

KSFO - San Francisco Intl, CA, US

Issued at 0523 UTC 05 Mar 2015
Updated at: 0802 UTC 05 Mar 2015
Time0756Z 05/09Z 05/10Z 05/11Z 05/12Z 05/13Z 05/14Z 05/15Z 05/16Z 05/17Z 05/18Z 05/19Z 05/20Z 05/21Z
Type OBS PRVL PRVL PRVL PRVL PRVL PRVL PRVL PRVL PRVL PRVL PRVL PRVL PRVL
VIS 10 >6 >6 >6 >6 >6 >6 >6 >6 >6 >6 >6 >6 >6
CIG -- -- -- -- -- -- -- -- -- -- -- -- -- --
Cover CLR SKC SKC SKC SKC SKC SKC SKC SKC SKC SKC SKC SKC SKC
FltCat VFR VFR VFR VFR VFR VFR VFR VFR VFR VFR VFR VFR VFR VFR
WX -- -- -- -- -- -- -- -- -- -- -- -- -- --
WDir VRB VRB VRB VRB VRB VRB VRB VRB VRB 40 40 40 40 40
WSpd 0 3 3 3 3 3 3 3 3 4 4 4 4 4
WGst -- -- -- -- -- -- -- -- -- -- -- -- -- --
R01/19
XWnd VRB VRB VRB VRB VRB VRB VRB VRB VRB -1 -1 -1 -1 -1
HWnd VRB VRB VRB VRB VRB VRB VRB VRB VRB 4 4 4 4 4
R10/28
XWnd VRB VRB VRB VRB VRB VRB VRB VRB VRB 4 4 4 4 4
HWnd VRB VRB VRB VRB VRB VRB VRB VRB VRB 1 1 1 1 1

NOTE: TEMPO conditions in [brackets]. Keep in mind TEMPO conditions might be better (lower impact) than prevailing conditions.

Raw TAF
KSFO 050523Z 0506/0612 28005KT P6SM SKC
  FM050900 VRB03KT P6SM SKC
  FM051700 04004KT P6SM SKC
  FM060100 29010KT P6SM SKC
  FM060900 VRB03KT P6SM SKC


Raw METAR
KSFO 050756Z 00000KT 10SM CLR 12/04 A3023 RMK AO2 SLP236 T01170044 401890072
KSFO 050656Z 00000KT 10SM CLR 13/04 A3022 RMK AO2 SLP233 T01330044
KSFO 050556Z 00000KT 10SM CLR 13/04 A3021 RMK AO2 SLP231 T01330044 10189 20128 53019

METAR Board
Radar Display
Forecast Discussion

TAF Board Legend

Potential Impact
Threat None Slight Moderate High
Visibility (sm) ≥5.1 5.1>X≥3 3>X≥1 <1
Ceiling (100 ft) ≥30.1 30.1>X≥10 10>X≥5 <5
Wind Speed (kt) <10 10≤X<20 20≤X<30 ≥30
Wind Gust (kt) <15 15≤X<25 25≤X<35 ≥35
Weather No Wx Reported VCTS,-TS,-FZRA,SN TS,FZRA +TS,+FZRA,+SN